Paddockwood, Canada
Current Conditions -  °F | °C
As of 3:19 AM on Wednesday 28 Jan 2015 (Local Time) from CYPA Reporting Station
Light Snow Light Snow  
Wind Chill: -1°   Ceiling: 2800
Heat Index: 14°   Visibility: 2.5mi
Dew Point: 10°   Wind: 14mph
Humidity: 86%   Direction: 80°E
Pressure: 29.97"   Gusts: NA
Location:  53.5°N, 105.57°W
Report Text: CYPA 280919Z 08012KT 2 1/2SM -SN DRSN BKN028 OVC058 M10/M12 A2997 RMK SC5SC3 SLP178
Loading
Personal Weather Stations






























Interactive Weather Map New forecast layout! Learn more

10-Day Weather Forecast

Advertisements
Track Severe Weather on mobile